Time;durP1;ratioP1;P1;durP2;ratioP2;P2;SDS_P1;SDS_P2;PMS_P1;PMS_P2;Temp;Humidity;BMP_temperature;BMP_pressure;BME280_temperature;BME280_humidity;BME280_pressure;Samples;Min_cycle;Max_cycle;Signal;HPM_P1;HPM_P2
2020/12/17 00:00:54;;;;;;;75.60;30.48;;;;;;;8.67;59.66;100600.75;4319538;33;20084;-95
2020/12/17 00:03:26;;;;;;;63.30;25.30;;;;;;;8.65;59.66;100606.84;4319833;33;20111;-96
2020/12/17 00:05:59;;;;;;;63.03;24.77;;;;;;;8.68;59.66;100602.47;4319683;33;20116;-94
2020/12/17 00:08:24;;;;;;;68.75;25.83;;;;;;;8.64;59.66;100605.97;4308430;33;20135;-94
2020/12/17 00:11:00;;;;;;;69.47;28.12;;;;;;;8.67;59.67;100599.87;4316922;33;20147;-96
2020/12/17 00:13:26;;;;;;;63.05;24.50;;;;;;;8.44;59.65;100603.56;4322295;33;20111;-95
2020/12/17 00:15:51;;;;;;;67.62;25.52;;;;;;;8.62;59.66;100594.75;4321755;33;20164;-95
2020/12/17 00:18:19;;;;;;;66.40;24.40;;;;;;;8.82;59.67;100595.41;4307683;33;20163;-95
2020/12/17 00:20:44;;;;;;;59.88;22.40;;;;;;;8.60;59.66;100605.16;4309546;33;20088;-96
2020/12/17 00:23:13;;;;;;;65.37;24.37;;;;;;;8.86;59.67;100601.41;4312619;33;20187;-96
2020/12/17 00:33:08;;;;;;;59.95;22.60;;;;;;;8.74;59.67;100597.19;4300419;33;20112;-94
2020/12/17 00:36:13;;;;;;;;;;;;;;;;;;;;;
2020/12/17 00:39:37;;;;;;;;;;;;;;;;;;;;;
2020/12/17 00:46:16;;;;;;;;;;;;;;;;;;;;;
2020/12/17 00:49:18;;;;;;;;;;;;;;;;;;;;;
2020/12/17 00:52:33;;;;;;;;;;;;;;;;;;;;;
2020/12/17 00:55:55;;;;;;;;;;;;;;;;;;;;;
2020/12/17 00:59:05;;;;;;;;;;;;;;;;;;;;;
2020/12/17 01:01:49;;;;;;;56.55;22.17;;;;;;;8.66;59.66;100613.75;4292687;33;36626;-94
2020/12/17 01:04:48;;;;;;;62.13;22.42;;;;;;;8.71;59.66;100612.81;4279682;33;20136;-94
2020/12/17 01:07:16;;;;;;;59.20;21.58;;;;;;;8.77;59.67;100622.28;4318659;33;20064;-96
2020/12/17 01:09:45;;;;;;;66.95;22.27;;;;;;;8.83;59.67;100625.69;4323317;33;20469;-95
2020/12/17 01:12:16;;;;;;;56.50;22.23;;;;;;;8.78;59.67;100618.81;4313572;33;20118;-95
2020/12/17 01:14:54;;;;;;;;;;;;;;;;;;;;;
2020/12/17 01:17:22;;;;;;;64.87;25.45;;;;;;;8.75;59.66;100622.28;4311530;33;35461;-95
2020/12/17 01:20:11;;;;;;;62.30;23.15;;;;;;;8.66;59.67;100624.97;4313314;33;20068;-96
2020/12/17 01:22:37;;;;;;;66.10;23.48;;;;;;;8.78;59.67;100614.50;4316093;33;20715;-96
2020/12/17 01:25:10;;;;;;;66.18;22.83;;;;;;;8.65;59.66;100619.81;4311180;33;20130;-94
2020/12/17 01:27:54;;;;;;;73.25;25.40;;;;;;;8.73;59.65;100613.66;4311249;33;20082;-96
2020/12/17 01:30:33;;;;;;;;;;;;;;;;;;;;;
2020/12/17 01:33:02;;;;;;;68.37;23.12;;;;;;;8.65;59.66;100612.03;4323543;33;36116;-94
2020/12/17 01:35:30;;;;;;;63.22;23.23;;;;;;;8.59;59.66;100603.44;4313618;33;20080;-95
2020/12/17 01:37:56;;;;;;;71.32;23.60;;;;;;;8.51;59.66;100601.78;4323257;33;20450;-95
2020/12/17 01:40:21;;;;;;;67.82;24.00;;;;;;;8.40;59.65;100606.22;4311039;33;20114;-94
2020/12/17 01:42:47;;;;;;;65.85;23.80;;;;;;;8.77;59.67;100602.38;4311363;33;20126;-95
2020/12/17 01:45:12;;;;;;;66.05;23.45;;;;;;;8.73;59.66;100608.47;4311099;33;20104;-96
2020/12/17 01:47:41;;;;;;;66.85;22.70;;;;;;;8.74;59.66;100606.72;4324820;33;20108;-95
2020/12/17 01:50:21;;;;;;;62.22;23.48;;;;;;;8.63;59.66;100606.00;4311759;33;20088;-93
2020/12/17 01:53:04;;;;;;;;;;;;;;;8.76;59.67;100610.19;4310396;33;20116;-95
2020/12/17 01:55:30;;;;;;;70.55;23.20;;;;;;;8.77;59.67;100617.97;4321314;33;20047;-93
2020/12/17 01:57:57;;;;;;;62.33;23.25;;;;;;;8.64;59.66;100608.56;4309932;33;20848;-92
2020/12/17 02:00:22;;;;;;;66.60;23.60;;;;;;;8.61;59.66;100619.00;4310018;33;20088;-93
2020/12/17 02:02:48;;;;;;;61.60;22.23;;;;;;;8.74;59.66;100611.91;4310030;33;20173;-92
2020/12/17 02:05:13;;;;;;;63.13;22.13;;;;;;;9.10;59.68;100608.91;4310205;33;20171;-93
2020/12/17 02:07:39;;;;;;;59.95;22.83;;;;;;;9.18;59.68;100604.47;4309941;33;20147;-93
2020/12/17 02:10:04;;;;;;;63.35;22.90;;;;;;;9.23;59.69;100610.50;4309783;33;20088;-93
2020/12/17 02:12:46;;;;;;;61.50;22.42;;;;;;;9.27;59.70;100613.03;4310113;33;20168;-92
2020/12/17 02:15:14;;;;;;;57.40;22.87;;;;;;;9.05;59.69;100612.44;4310422;33;20080;-92
2020/12/17 02:17:43;;;;;;;67.65;24.27;;;;;;;8.99;59.68;100605.59;4305477;33;20064;-92
2020/12/17 02:20:08;;;;;;;66.10;23.17;;;;;;;8.58;59.65;100601.72;4310058;33;20096;-93
2020/12/17 02:22:34;;;;;;;61.30;23.02;;;;;;;8.40;59.65;100609.66;4309604;33;20445;-93
2020/12/17 02:25:02;;;;;;;62.75;22.83;;;;;;;8.54;59.65;100613.00;4310101;33;20385;-94
2020/12/17 02:27:30;;;;;;;64.60;24.50;;;;;;;8.44;59.64;100607.91;4310326;33;20110;-94
2020/12/17 02:30:06;;;;;;;65.35;23.83;;;;;;;8.47;59.65;100608.72;4310650;33;20072;-93
2020/12/17 02:32:31;;;;;;;59.47;21.95;;;;;;;8.58;59.65;100619.87;4311115;33;20112;-93
2020/12/17 02:34:57;;;;;;;60.63;21.77;;;;;;;8.58;59.65;100614.69;4309087;33;20498;-93
2020/12/17 02:37:34;;;;;;;62.33;23.00;;;;;;;8.57;59.65;100618.16;4309684;33;20123;-92
2020/12/17 02:40:07;;;;;;;60.85;21.73;;;;;;;8.40;59.65;100616.59;4309952;33;20088;-91
2020/12/17 02:42:55;;;;;;;67.03;22.25;;;;;;;8.52;59.66;100617.34;4321995;33;20197;-93
2020/12/17 02:46:15;;;;;;;;;;;;;;;;;;;;;
2020/12/17 02:53:07;;;;;;;;;;;;;;;;;;;;;
2020/12/17 03:03:20;;;;;;;;;;;;;;;;;;;;;
2020/12/17 03:06:14;;;;;;;63.60;22.75;;;;;;;8.64;59.66;100615.50;4255110;33;37403;-94
2020/12/17 03:08:56;;;;;;;;;;;;;;;;;;;;;
2020/12/17 03:11:31;;;;;;;64.25;22.25;;;;;;;8.53;59.66;100615.63;4303539;33;35811;-94
2020/12/17 03:14:03;;;;;;;68.65;24.02;;;;;;;8.60;59.66;100604.28;4312276;33;20092;-94
2020/12/17 03:16:42;;;;;;;;;;;;;;;;;;;;;
2020/12/17 03:19:08;;;;;;;61.22;22.60;;;;;;;8.64;59.66;100603.37;4310466;33;35218;-95
2020/12/17 03:21:34;;;;;;;63.30;21.60;;;;;;;8.74;59.67;100599.78;4322176;33;20111;-93
2020/12/17 04:39:21;;;;;;;55.92;21.37;;;;;;;8.91;59.68;100605.66;4287789;33;20100;-93
2020/12/17 05:00:43;;;;;;;54.42;19.48;;;;;;;8.95;59.67;100616.00;4910029;27;20110;-94
2020/12/17 05:03:11;;;;;;;57.60;20.35;;;;;;;8.90;59.68;100608.28;4295398;33;20108;-96
2020/12/17 05:12:05;;;;;;;59.65;20.55;;;;;;;8.70;59.66;100624.06;4822256;27;20120;-95
2020/12/17 05:14:34;;;;;;;52.28;19.37;;;;;;;8.66;59.66;100618.94;4311484;33;20137;-95
2020/12/17 05:17:02;;;;;;;58.87;19.10;;;;;;;8.78;59.66;100618.81;4323652;33;20112;-95
2020/12/17 05:19:36;;;;;;;55.78;19.67;;;;;;;8.72;59.66;100624.06;4312360;33;20072;-96
2020/12/17 05:22:04;;;;;;;51.55;20.45;;;;;;;8.69;59.66;100619.75;4313006;33;20080;-96
2020/12/17 05:24:29;;;;;;;54.22;22.17;;;;;;;8.70;59.66;100623.22;4322960;33;20141;-94
2020/12/17 05:27:10;;;;;;;58.97;22.37;;;;;;;8.75;59.67;100618.81;4311211;33;20112;-96
2020/12/17 05:29:43;;;;;;;62.25;23.62;;;;;;;8.72;59.66;100621.47;4324358;33;20064;-96
2020/12/17 05:32:26;;;;;;;67.10;23.45;;;;;;;8.61;59.65;100626.78;4342748;33;20068;-96
2020/12/17 05:35:00;;;;;;;60.63;21.65;;;;;;;8.64;59.66;100621.53;4360955;27;20086;-96
2020/12/17 05:38:26;;;;;;;58.42;21.42;;;;;;;8.60;59.66;100625.91;4316380;33;20162;-96
2020/12/17 05:40:53;;;;;;;55.67;19.60;;;;;;;8.67;59.66;100629.31;4378324;27;20680;-96
2020/12/17 05:43:42;;;;;;;57.17;20.52;;;;;;;8.69;59.66;100634.47;4344603;28;20157;-96
2020/12/17 05:46:51;;;;;;;56.92;19.55;;;;;;;8.79;59.67;100628.31;4332788;33;20148;-96
2020/12/17 05:55:04;;;;;;;56.03;17.45;;;;;;;8.72;59.66;100648.28;4325388;33;20141;-96
2020/12/17 05:57:53;;;;;;;49.88;18.70;;;;;;;8.89;59.68;100641.19;4317120;33;20077;-96
2020/12/17 06:00:22;;;;;;;51.00;18.33;;;;;;;8.66;59.67;100645.75;4315228;33;20067;-96
2020/12/17 06:02:48;;;;;;;52.50;17.90;;;;;;;8.81;59.66;100645.59;4327810;33;20088;-96
2020/12/17 06:05:16;;;;;;;50.65;18.67;;;;;;;8.97;59.68;100643.69;4299854;33;20110;-96
2020/12/17 06:07:45;;;;;;;48.25;18.05;;;;;;;9.02;59.68;100646.25;4311181;33;20104;-96
2020/12/17 06:10:15;;;;;;;50.97;18.65;;;;;;;8.94;59.67;100641.13;4311848;33;20827;-96
2020/12/17 06:12:40;;;;;;;50.60;18.58;;;;;;;8.91;59.67;100643.75;4324151;33;20104;-96
2020/12/17 06:15:06;;;;;;;48.85;18.30;;;;;;;8.75;59.67;100644.78;4322954;33;20080;-96
2020/12/17 06:18:02;;;;;;;;;;;;;;;;;;;;;
2020/12/17 06:20:40;;;;;;;45.10;18.08;;;;;;;8.58;59.65;100658.81;4327353;33;35408;-96
2020/12/17 06:23:16;;;;;;;49.40;19.75;;;;;;;8.71;59.66;100654.34;4332992;33;20083;-96
2020/12/17 06:25:51;;;;;;;51.33;18.23;;;;;;;8.77;59.67;100656.91;4332273;33;20108;-96
2020/12/17 06:28:58;;;;;;;48.53;18.30;;;;;;;8.60;59.66;100661.38;4331842;33;20102;-96
2020/12/17 06:31:26;;;;;;;51.40;19.00;;;;;;;8.56;59.65;100659.69;4317671;33;20099;-96
2020/12/17 06:34:11;;;;;;;46.10;19.15;;;;;;;8.61;59.66;100661.38;4302256;33;20119;-96
2020/12/17 06:36:38;;;;;;;52.05;18.55;;;;;;;8.55;59.65;100665.75;4313504;33;20088;-95
2020/12/17 06:39:05;;;;;;;48.97;18.25;;;;;;;8.77;59.66;100677.66;4325129;33;20112;-96
2020/12/17 06:41:31;;;;;;;53.17;19.90;;;;;;;8.85;59.67;100681.03;4300175;33;20108;-96
2020/12/17 06:44:41;;;;;;;;;;;;;;;;;;;;;
2020/12/17 06:47:11;;;;;;;46.80;19.17;;;;;;;8.69;59.67;100676.00;4316029;33;35129;-96
2020/12/17 06:58:19;;;;;;;50.17;18.00;;;;;;;9.06;59.68;100692.09;4311491;33;20089;-94
2020/12/17 07:00:48;;;;;;;38.55;15.55;;;;;;;8.74;59.67;100685.44;4284958;33;20168;-95
2020/12/17 07:03:42;;;;;;;47.50;18.20;;;;;;;8.70;59.66;100682.91;4285682;33;20104;-95
2020/12/17 07:06:23;;;;;;;42.67;16.83;;;;;;;8.77;59.67;100692.38;4298619;33;20084;-95
2020/12/17 07:18:31;;;;;;;43.08;16.25;;;;;;;8.77;59.67;100703.62;4243687;33;20112;-92
2020/12/17 07:21:06;;;;;;;41.75;15.98;;;;;;;8.87;59.67;100699.19;4244157;33;20133;-91
2020/12/17 07:23:33;;;;;;;40.05;14.82;;;;;;;8.92;59.67;100693.06;4274992;33;20184;-91
2020/12/17 07:26:11;;;;;;;38.97;16.42;;;;;;;8.81;59.66;100692.34;4278999;33;20422;-93
2020/12/17 07:28:36;;;;;;;41.88;17.05;;;;;;;8.70;59.66;100688.09;4280293;33;20096;-94
2020/12/17 07:31:01;;;;;;;48.17;18.02;;;;;;;8.75;59.67;100692.38;4280267;33;20156;-93
2020/12/17 07:33:45;;;;;;;48.30;18.67;;;;;;;8.85;59.67;100696.62;4292694;33;20148;-94
2020/12/17 07:36:11;;;;;;;51.42;20.20;;;;;;;8.84;59.67;100692.31;4280135;33;20112;-93
2020/12/17 07:38:37;;;;;;;51.30;19.87;;;;;;;8.96;59.67;100698.22;4283006;33;20091;-93
2020/12/17 07:41:02;;;;;;;51.37;19.20;;;;;;;8.88;59.67;100693.12;4302219;33;20093;-94
2020/12/17 07:43:48;;;;;;;52.65;19.10;;;;;;;8.77;59.67;100695.84;4291342;33;20105;-96
2020/12/17 07:46:13;;;;;;;49.13;18.30;;;;;;;8.96;59.67;100698.22;4286221;33;20139;-93
2020/12/17 07:48:57;;;;;;;50.03;18.02;;;;;;;8.87;59.67;100694.00;4283723;33;20104;-95
2020/12/17 07:51:27;;;;;;;45.22;17.83;;;;;;;8.87;59.67;100697.47;4282898;33;20092;-93
2020/12/17 07:53:53;;;;;;;42.10;17.02;;;;;;;9.04;59.69;100689.50;4280844;33;20117;-93
2020/12/17 07:56:19;;;;;;;47.90;17.92;;;;;;;9.20;59.69;100690.16;4280822;33;20155;-94
2020/12/17 07:58:44;;;;;;;38.63;16.60;;;;;;;9.09;59.68;100692.03;4281621;33;20096;-93
2020/12/17 08:01:10;;;;;;;45.03;17.08;;;;;;;9.15;59.69;100695.44;4293086;33;20129;-93
2020/12/17 08:03:47;;;;;;;54.47;20.48;;;;;;;9.17;59.69;100700.59;4281075;33;20187;-93
2020/12/17 08:06:17;;;;;;;58.47;23.30;;;;;;;9.46;59.70;100697.66;4281391;33;20168;-94
2020/12/17 08:08:42;;;;;;;55.28;27.40;;;;;;;9.03;59.68;100699.91;4281226;33;20127;-94
2020/12/17 08:11:08;;;;;;;55.40;22.60;;;;;;;9.16;59.69;100699.75;4281031;33;20115;-94
2020/12/17 08:13:34;;;;;;;48.55;19.87;;;;;;;9.09;59.68;100711.09;4281312;33;20108;-95
2020/12/17 08:16:00;;;;;;;49.60;20.08;;;;;;;9.20;59.69;100701.41;4280945;33;20139;-95
2020/12/17 08:18:35;;;;;;;41.75;18.83;;;;;;;9.08;59.68;100708.50;4269475;33;20096;-95
2020/12/17 08:21:01;;;;;;;43.80;18.60;;;;;;;9.15;59.69;100708.41;4269065;33;20097;-94
2020/12/17 08:23:31;;;;;;;45.67;18.02;;;;;;;9.35;59.70;100707.34;4280948;33;20824;-94
2020/12/17 08:25:59;;;;;;;43.28;17.75;;;;;;;9.21;59.69;100702.28;4268921;33;20187;-93
2020/12/17 08:28:28;;;;;;;40.67;17.77;;;;;;;9.19;59.69;100707.50;4281064;33;20129;-95
2020/12/17 08:31:03;;;;;;;44.65;16.33;;;;;;;9.32;59.69;100708.22;4269735;33;20093;-95
2020/12/17 08:33:28;;;;;;;37.67;15.32;;;;;;;9.16;59.69;100714.47;4280732;33;20109;-95
2020/12/17 08:36:03;;;;;;;39.28;15.85;;;;;;;9.20;59.69;100713.56;4269171;33;20196;-93
2020/12/17 08:38:28;;;;;;;37.25;14.00;;;;;;;9.14;59.68;100708.44;4268581;33;20096;-92
2020/12/17 08:40:55;;;;;;;41.67;14.68;;;;;;;9.50;59.71;100709.75;4268505;33;20446;-94
2020/12/17 08:43:20;;;;;;;36.10;15.40;;;;;;;9.05;59.68;100713.72;4268838;33;20168;-93
2020/12/17 08:45:46;;;;;;;37.00;15.38;;;;;;;9.43;59.70;100714.16;4268934;33;20202;-95
2020/12/17 08:48:15;;;;;;;36.15;14.07;;;;;;;9.27;59.70;100717.81;4269108;33;20147;-94
2020/12/17 08:50:41;;;;;;;37.70;15.85;;;;;;;9.34;59.70;100722.06;4268563;33;20101;-91
2020/12/17 08:53:18;;;;;;;37.22;15.48;;;;;;;9.30;59.70;100715.19;4267792;33;24271;-91
2020/12/17 08:55:43;;;;;;;43.87;20.15;;;;;;;9.37;59.70;100718.56;4268190;33;20096;-94
2020/12/17 08:58:09;;;;;;;43.67;21.00;;;;;;;9.56;59.71;100719.22;4266574;33;20139;-92
2020/12/17 09:00:34;;;;;;;36.78;17.15;;;;;;;9.45;59.70;100712.38;4265927;33;20519;-93
2020/12/17 09:03:00;;;;;;;33.95;14.85;;;;;;;9.58;59.71;100714.84;4268149;33;20120;-93
2020/12/17 09:05:25;;;;;;;34.88;17.00;;;;;;;9.36;59.71;100720.31;4269106;33;20113;-94
2020/12/17 09:07:53;;;;;;;36.40;16.67;;;;;;;9.52;59.71;100723.59;4269341;33;31259;-94
2020/12/17 09:10:19;;;;;;;29.45;14.65;;;;;;;9.37;59.70;100722.03;4269263;33;20108;-94
2020/12/17 09:12:44;;;;;;;30.62;13.18;;;;;;;9.62;59.71;100725.19;4269112;33;20146;-95
2020/12/17 09:15:13;;;;;;;30.15;13.35;;;;;;;9.57;59.71;100727.00;4270118;33;20151;-93
2020/12/17 09:17:39;;;;;;;34.67;14.48;;;;;;;9.44;59.70;100722.81;4270085;33;20469;-93
2020/12/17 09:20:17;;;;;;;25.23;11.82;;;;;;;9.54;59.71;100729.63;4269856;33;20132;-94
2020/12/17 09:22:43;;;;;;;27.73;13.13;;;;;;;9.52;59.71;100723.59;4269641;33;20108;-94
2020/12/17 09:25:08;;;;;;;26.17;12.25;;;;;;;9.32;59.69;100729.03;4269879;33;20104;-93
2020/12/17 09:27:37;;;;;;;32.40;13.18;;;;;;;9.56;59.71;100724.41;4269601;33;20129;-93
2020/12/17 09:30:21;;;;;;;34.20;14.45;;;;;;;9.67;59.72;100725.13;4270029;33;20096;-93
2020/12/17 09:32:56;;;;;;;28.35;11.98;;;;;;;9.73;59.72;100717.25;4281217;33;20822;-92
2020/12/17 09:35:23;;;;;;;27.98;13.50;;;;;;;9.82;59.72;100722.34;4281096;33;20096;-92
2020/12/17 09:38:08;;;;;;;40.25;15.65;;;;;;;9.64;59.71;100722.56;4269171;33;20186;-94
2020/12/17 09:40:44;;;;;;;36.13;14.45;;;;;;;9.68;59.72;100726.84;4293471;33;20077;-93
2020/12/17 09:43:10;;;;;;;34.75;16.10;;;;;;;9.72;59.71;100728.53;4271838;33;20109;-93
2020/12/17 09:45:39;;;;;;;38.47;16.77;;;;;;;9.88;59.73;100729.19;4293656;33;20493;-92
2020/12/17 09:48:26;;;;;;;28.10;11.52;;;;;;;9.83;59.72;100724.91;4269829;33;20096;-95
2020/12/17 09:50:55;;;;;;;29.92;12.82;;;;;;;10.19;59.74;100721.84;4282450;33;20104;-92
2020/12/17 09:53:21;;;;;;;29.20;13.10;;;;;;;9.61;59.71;100725.22;4281489;33;20105;-94
2020/12/17 09:55:47;;;;;;;33.85;15.02;;;;;;;9.62;59.71;100727.78;4273943;33;20120;-92
2020/12/17 09:58:13;;;;;;;26.62;13.00;;;;;;;9.67;59.72;100719.94;4276501;33;20092;-92
2020/12/17 10:00:38;;;;;;;26.02;13.23;;;;;;;9.85;59.72;100724.87;4280939;33;20143;-94
2020/12/17 10:03:03;;;;;;;27.00;13.27;;;;;;;9.87;59.73;100732.66;4275595;33;20481;-94
2020/12/17 10:05:29;;;;;;;28.50;14.15;;;;;;;9.79;59.73;100731.03;4271060;33;20128;-94
2020/12/17 10:07:54;;;;;;;27.52;14.10;;;;;;;9.68;59.72;100726.84;4270170;33;20119;-95
2020/12/17 10:10:20;;;;;;;25.95;13.35;;;;;;;9.80;59.73;100724.09;4270655;33;20140;-93
2020/12/17 10:12:45;;;;;;;27.13;13.02;;;;;;;10.08;59.73;100722.81;4270619;33;20160;-93
2020/12/17 10:15:11;;;;;;;28.33;12.43;;;;;;;10.03;59.74;100719.44;4270446;33;21043;-93
2020/12/17 10:17:36;;;;;;;27.30;12.80;;;;;;;10.13;59.74;100725.34;4281854;33;20241;-94
2020/12/17 10:20:05;;;;;;;31.67;13.77;;;;;;;9.90;59.73;100725.69;4268771;33;23296;-92
2020/12/17 10:22:31;;;;;;;33.90;14.80;;;;;;;9.87;59.72;100732.66;4269185;33;20128;-93
2020/12/17 10:24:56;;;;;;;28.33;13.60;;;;;;;9.76;59.71;100731.09;4269360;33;25640;-94
2020/12/17 10:27:21;;;;;;;29.75;13.88;;;;;;;10.02;59.74;100730.72;4280798;33;20104;-92
2020/12/17 10:29:47;;;;;;;28.85;14.25;;;;;;;10.13;59.74;100734.03;4268614;33;21189;-93
2020/12/17 10:32:13;;;;;;;32.28;14.63;;;;;;;9.97;59.73;100735.13;4268512;33;20129;-93
2020/12/17 10:34:39;;;;;;;30.67;14.30;;;;;;;9.74;59.72;100725.03;4269693;33;20134;-93
2020/12/17 10:37:05;;;;;;;32.13;14.93;;;;;;;9.86;59.72;100718.81;4269257;33;20148;-94
2020/12/17 10:39:30;;;;;;;30.55;14.60;;;;;;;9.84;59.72;100720.56;4269118;33;20088;-93
2020/12/17 10:41:56;;;;;;;30.58;14.50;;;;;;;9.82;59.72;100722.34;4269115;33;20165;-94
2020/12/17 10:44:21;;;;;;;33.78;14.87;;;;;;;10.01;59.73;100734.22;4268742;33;20163;-92
2020/12/17 10:46:50;;;;;;;34.28;15.48;;;;;;;10.20;59.74;100729.63;4268751;33;20147;-94
2020/12/17 10:49:15;;;;;;;31.42;15.98;;;;;;;10.14;59.74;100725.34;4281025;33;20439;-93
2020/12/17 10:51:42;;;;;;;33.60;14.23;;;;;;;10.07;59.73;100728.91;4269091;33;20100;-93
2020/12/17 10:54:07;;;;;;;30.02;13.40;;;;;;;9.91;59.73;100726.53;4269737;33;20763;-92
2020/12/17 10:56:33;;;;;;;30.50;13.57;;;;;;;9.71;59.71;100727.69;4268615;33;20123;-92
2020/12/17 10:58:58;;;;;;;27.70;13.13;;;;;;;9.85;59.72;100723.16;4268871;33;20143;-92
2020/12/17 11:01:24;;;;;;;29.55;15.98;;;;;;;9.80;59.73;100727.56;4269103;33;20861;-91
2020/12/17 11:03:51;;;;;;;31.58;14.82;;;;;;;9.73;59.72;100725.94;4269371;33;20436;-93
2020/12/17 11:06:25;;;;;;;31.75;14.65;;;;;;;9.99;59.73;100725.56;4269165;33;20085;-92
2020/12/17 11:08:51;;;;;;;25.17;13.05;;;;;;;9.73;59.72;100722.47;4268726;33;20060;-92
2020/12/17 11:11:18;;;;;;;28.87;14.98;;;;;;;9.88;59.73;100724.84;4269475;33;20232;-95
2020/12/17 11:13:43;;;;;;;26.30;12.75;;;;;;;9.90;59.73;100725.69;4269739;33;20091;-92
2020/12/17 11:16:09;;;;;;;26.25;14.07;;;;;;;9.77;59.72;100725.00;4268962;33;20439;-93
2020/12/17 11:18:34;;;;;;;27.92;14.07;;;;;;;9.84;59.72;100720.56;4269767;33;20407;-93
2020/12/17 11:20:59;;;;;;;41.58;19.20;;;;;;;9.83;59.72;100718.84;4271443;33;20156;-93
2020/12/17 11:23:25;;;;;;;43.05;19.37;;;;;;;9.74;59.72;100719.84;4269598;33;20100;-92
2020/12/17 11:25:50;;;;;;;30.70;14.73;;;;;;;9.81;59.73;100712.81;4269548;33;20104;-93
2020/12/17 11:28:16;;;;;;;33.58;15.73;;;;;;;9.64;59.71;100712.16;4268397;33;21873;-94
2020/12/17 11:30:41;;;;;;;38.85;17.60;;;;;;;9.69;59.71;100713.81;4269027;33;20159;-93
2020/12/17 11:33:07;;;;;;;32.08;15.02;;;;;;;9.80;59.73;100717.16;4281696;33;20108;-95
2020/12/17 11:35:32;;;;;;;40.22;17.90;;;;;;;9.98;59.73;100721.25;4269599;33;20131;-94
2020/12/17 11:37:58;;;;;;;30.27;14.25;;;;;;;9.84;59.72;100724.03;4269652;33;20491;-93
2020/12/17 11:40:23;;;;;;;30.50;14.00;;;;;;;9.89;59.73;100718.75;4268823;33;20476;-93
2020/12/17 11:42:50;;;;;;;38.75;17.62;;;;;;;9.92;59.73;100721.31;4269321;33;20498;-93
2020/12/17 11:45:15;;;;;;;34.67;17.90;;;;;;;9.82;59.72;100711.94;4269454;33;20793;-94
2020/12/17 11:47:41;;;;;;;35.20;16.42;;;;;;;9.94;59.73;100711.78;4269654;33;20104;-95
2020/12/17 11:50:06;;;;;;;31.75;14.45;;;;;;;9.79;59.73;100718.03;4269616;33;20203;-94
2020/12/17 11:52:35;;;;;;;35.70;17.25;;;;;;;9.69;59.72;100712.97;4269331;33;20164;-95
2020/12/17 11:55:01;;;;;;;32.42;15.70;;;;;;;9.77;59.72;100714.59;4267658;33;20118;-93
2020/12/17 11:57:26;;;;;;;32.80;17.20;;;;;;;9.76;59.72;100718.09;4268880;33;20102;-94
2020/12/17 11:59:52;;;;;;;28.25;13.88;;;;;;;9.58;59.71;100714.84;4268206;33;24813;-94
2020/12/17 12:02:17;;;;;;;32.72;15.80;;;;;;;9.80;59.73;100717.16;4267721;33;20131;-94
2020/12/17 12:04:43;;;;;;;36.03;15.55;;;;;;;9.83;59.72;100714.50;4266814;33;20193;-94
2020/12/17 12:07:08;;;;;;;42.58;16.45;;;;;;;10.02;59.74;100712.53;4268179;33;20139;-94
2020/12/17 12:09:33;;;;;;;44.17;17.80;;;;;;;10.01;59.73;100709.94;4268312;33;21220;-94
2020/12/17 12:11:59;;;;;;;44.47;17.92;;;;;;;10.00;59.73;100706.47;4268299;33;20135;-94
2020/12/17 12:14:25;;;;;;;42.78;16.92;;;;;;;10.14;59.74;100708.88;4280723;33;20097;-94
2020/12/17 12:16:50;;;;;;;42.97;16.62;;;;;;;10.24;59.75;100705.28;4268650;33;20100;-95
2020/12/17 12:19:16;;;;;;;43.00;18.70;;;;;;;10.35;59.75;100697.31;4268908;33;20131;-95
2020/12/17 12:21:43;;;;;;;39.92;17.62;;;;;;;10.37;59.76;100706.81;4274184;33;20116;-95
2020/12/17 12:24:08;;;;;;;41.92;16.87;;;;;;;10.44;59.75;100699.78;4278404;33;20079;-95
2020/12/17 12:26:33;;;;;;;47.33;18.62;;;;;;;10.42;59.76;100696.34;4274824;33;20395;-95
2020/12/17 12:28:59;;;;;;;48.92;18.73;;;;;;;10.31;59.75;100700.84;4268357;33;20784;-95
2020/12/17 12:31:24;;;;;;;45.08;19.10;;;;;;;10.35;59.75;100707.72;4269036;33;20117;-94
2020/12/17 12:33:49;;;;;;;47.15;17.98;;;;;;;10.50;59.76;100704.00;4268798;33;20167;-94
2020/12/17 12:36:15;;;;;;;46.35;20.62;;;;;;;10.31;59.75;100704.31;4280231;33;20104;-96
2020/12/17 12:38:40;;;;;;;45.67;18.87;;;;;;;10.42;59.76;100699.81;4280104;33;20116;-93
2020/12/17 12:41:06;;;;;;;50.97;20.62;;;;;;;10.28;59.75;100703.50;4269732;33;20127;-96
2020/12/17 12:43:32;;;;;;;48.03;19.80;;;;;;;10.45;59.76;100699.75;4270313;33;20119;-95
2020/12/17 12:45:57;;;;;;;50.12;18.95;;;;;;;10.44;59.76;100705.84;4269603;33;20120;-94
2020/12/17 12:48:23;;;;;;;48.10;19.42;;;;;;;10.40;59.75;100705.88;4269276;33;20148;-95
2020/12/17 12:50:49;;;;;;;50.65;20.58;;;;;;;10.55;59.77;100695.25;4270011;33;20383;-95
2020/12/17 12:53:14;;;;;;;50.88;21.17;;;;;;;10.39;59.75;100701.56;4270398;33;20057;-93
2020/12/17 12:55:40;;;;;;;47.42;20.17;;;;;;;10.52;59.76;100697.03;4270891;33;20114;-95
2020/12/17 12:58:05;;;;;;;41.08;18.35;;;;;;;10.50;59.76;100709.22;4270127;33;20136;-95
2020/12/17 13:00:31;;;;;;;43.53;17.42;;;;;;;10.54;59.76;100703.94;4270042;33;20108;-96
2020/12/17 13:02:56;;;;;;;42.83;19.35;;;;;;;10.37;59.75;100705.94;4270522;33;20188;-94
2020/12/17 13:05:22;;;;;;;40.78;17.08;;;;;;;10.47;59.76;100712.75;4281620;33;20080;-95
2020/12/17 13:07:47;;;;;;;44.40;18.02;;;;;;;10.32;59.76;100715.56;4268691;33;27785;-94
2020/12/17 13:10:13;;;;;;;42.97;17.80;;;;;;;10.27;59.75;100709.59;4281062;33;20143;-95
2020/12/17 13:12:38;;;;;;;35.97;15.52;;;;;;;10.16;59.75;100707.94;4281084;33;20111;-96
2020/12/17 13:15:04;;;;;;;47.30;24.63;;;;;;;10.26;59.75;100702.66;4269428;33;20088;-95
2020/12/17 13:17:30;;;;;;;87.15;59.72;;;;;;;10.30;59.75;100701.72;4269244;33;20104;-95
2020/12/17 13:19:57;;;;;;;33.25;19.95;;;;;;;10.05;59.73;100701.22;4269505;33;20139;-95
2020/12/17 13:22:22;;;;;;;47.13;23.77;;;;;;;10.00;59.73;100713.44;4269783;33;20100;-94
2020/12/17 13:24:48;;;;;;;42.95;24.17;;;;;;;10.14;59.74;100704.53;4269135;33;20099;-94
2020/12/17 13:27:13;;;;;;;34.70;16.65;;;;;;;10.07;59.73;100695.09;4269313;33;20168;-95
2020/12/17 13:29:39;;;;;;;34.28;17.00;;;;;;;9.95;59.73;100708.28;4269117;33;20104;-94
2020/12/17 13:32:04;;;;;;;29.25;14.25;;;;;;;10.04;59.74;100702.94;4281322;33;20460;-93
2020/12/17 13:34:30;;;;;;;31.87;14.68;;;;;;;10.05;59.74;100698.59;4269532;33;20156;-95
2020/12/17 13:36:55;;;;;;;30.15;13.77;;;;;;;9.97;59.73;100700.47;4269605;33;20455;-94
2020/12/17 13:39:21;;;;;;;40.28;20.62;;;;;;;10.00;59.73;100700.41;4269636;33;20132;-94
2020/12/17 13:41:50;;;;;;;34.22;17.50;;;;;;;9.72;59.71;100702.56;4269809;33;20140;-92
2020/12/17 13:44:15;;;;;;;28.02;14.75;;;;;;;9.73;59.72;100701.66;4271250;33;20095;-94
2020/12/17 13:46:41;;;;;;;27.33;14.87;;;;;;;9.94;59.74;100703.97;4270090;33;20143;-94
2020/12/17 13:49:06;;;;;;;32.22;17.25;;;;;;;9.71;59.71;100701.69;4271083;33;20236;-94
2020/12/17 13:51:32;;;;;;;26.45;16.27;;;;;;;9.71;59.71;100703.44;4269562;33;20155;-94
2020/12/17 13:53:57;;;;;;;24.12;13.07;;;;;;;9.66;59.72;100710.41;4270154;33;20136;-95
2020/12/17 13:56:26;;;;;;;26.05;17.40;;;;;;;10.02;59.74;100717.72;4269773;33;20143;-95
2020/12/17 13:58:52;;;;;;;25.02;13.57;;;;;;;9.93;59.73;100717.84;4270356;33;20164;-96
2020/12/17 14:01:19;;;;;;;21.00;11.75;;;;;;;9.68;59.72;100725.09;4271588;33;20092;-96
2020/12/17 14:03:44;;;;;;;24.15;13.13;;;;;;;9.70;59.71;100731.16;4282501;33;20103;-94
2020/12/17 14:06:10;;;;;;;25.05;13.90;;;;;;;9.74;59.72;100731.97;4270525;33;20697;-96
2020/12/17 14:08:35;;;;;;;27.23;14.00;;;;;;;9.56;59.71;100729.59;4281915;33;20113;-94
2020/12/17 14:11:03;;;;;;;27.42;13.07;;;;;;;9.41;59.70;100731.50;4281694;33;20111;-95
2020/12/17 14:13:28;;;;;;;27.35;13.35;;;;;;;9.59;59.71;100735.63;4270119;33;20104;-96
2020/12/17 14:15:54;;;;;;;24.52;11.85;;;;;;;9.40;59.70;100736.72;4282262;33;20146;-96
2020/12/17 14:18:19;;;;;;;25.70;12.63;;;;;;;9.18;59.68;100739.53;4270142;33;20124;-96
2020/12/17 14:20:45;;;;;;;23.95;12.98;;;;;;;9.25;59.69;100742.09;4270031;33;20176;-96